Аэропорт: Актобе. Актобе

ICAO: UATT

METAR:
2020-06-01 02:00:00
UATT 010200Z 31004MPS CAVOK 18/07 Q1012 R31/70D NOSIG RMK QFE739/0985
METAR:
2020-05-31 23:00:00
TAF UATT 312300Z 0100/0124 28005MPS 9999 SCT020 TX28/0112Z TN15/0101Z TEMPO 0104/0116 30010MPS